Station Historical Data
Daily Summary for January 14, 2017 Units:  Both    English   Metric
« Previous Day
Next Day »
Daily Weekly Monthly Yearly Custom
  High: Low: Average:
Temperature: 29.3 °F /  -1.5 °C 19.5 °F /  -6.9 °C 24 °F /  -4.4 °C
Dew Point: 20.7 °F /  -6.3 °C 14.8 °F /  -9.6 °C 17.3 °F /  -8.2 °C
Humidity: 84% 65% 75%
Wind Speed: 7.0mph /  11.3km/h - 1.5mph /  2.4km/h
Wind Gust: 10.0mph /  16.1km/h - -
Wind- - ESE
Pressure: 30.76 in /  1041.5 hPa 30.38 in /  1028.7 hPa -
Precipitation: 0.00 in /  0 mm    
Historical Graphs
 
 
Tabular Data for January 14, 2017
Time Temperature Dew Point Pressure Wind Wind Speed Wind Gust Humidity Rainfall Rate (Hourly)
00:04 22.2 °F /  -5.4 °C 16.1 °F /  -8.8 °C 30.76in /  1041.5hPa NE 5.0mph /  8km/h 10.0mph /  16.1km/h 77% 0.00in /  0mm
00:09 22.1 °F /  -5.5 °C 16.0 °F /  -8.9 °C 30.76in /  1041.5hPa NE 5.0mph /  8km/h 10.0mph /  16.1km/h 77% 0.00in /  0mm
00:14 22.0 °F /  -5.6 °C 15.9 °F /  -8.9 °C 30.76in /  1041.5hPa NE 4.0mph /  6.4km/h 9.0mph /  14.5km/h 77% 0.00in /  0mm
00:19 21.9 °F /  -5.6 °C 15.8 °F /  -9 °C 30.76in /  1041.5hPa NE 4.0mph /  6.4km/h 9.0mph /  14.5km/h 77% 0.00in /  0mm
00:24 22.0 °F /  -5.6 °C 15.9 °F /  -8.9 °C 30.76in /  1041.5hPa NE 3.0mph /  4.8km/h 8.0mph /  12.9km/h 77% 0.00in /  0mm
00:29 22.0 °F /  -5.6 °C 15.9 °F /  -8.9 °C 30.76in /  1041.5hPa ENE 4.0mph /  6.4km/h 8.0mph /  12.9km/h 77% 0.00in /  0mm
00:34 22.0 °F /  -5.6 °C 15.9 °F /  -8.9 °C 30.75in /  1041.2hPa NE 2.0mph /  3.2km/h 7.0mph /  11.3km/h 77% 0.00in /  0mm
00:39 21.9 °F /  -5.6 °C 15.8 °F /  -9 °C 30.76in /  1041.5hPa ENE 3.0mph /  4.8km/h 8.0mph /  12.9km/h 77% 0.00in /  0mm
00:44 21.8 °F /  -5.7 °C 15.7 °F /  -9.1 °C 30.76in /  1041.5hPa NE 3.0mph /  4.8km/h 7.0mph /  11.3km/h 77% 0.00in /  0mm
00:49 21.7 °F /  -5.7 °C 15.6 °F /  -9.1 °C 30.75in /  1041.2hPa ENE 4.0mph /  6.4km/h 8.0mph /  12.9km/h 77% 0.00in /  0mm
00:54 21.7 °F /  -5.7 °C 15.6 °F /  -9.1 °C 30.75in /  1041.2hPa NE 5.0mph /  8km/h 8.0mph /  12.9km/h 77% 0.00in /  0mm
00:59 21.6 °F /  -5.8 °C 15.5 °F /  -9.2 °C 30.75in /  1041.2hPa ENE 4.0mph /  6.4km/h 8.0mph /  12.9km/h 77% 0.00in /  0mm
01:04 21.7 °F /  -5.7 °C 15.9 °F /  -8.9 °C 30.75in /  1041.2hPa NE 7.0mph /  11.3km/h 8.0mph /  12.9km/h 78% 0.00in /  0mm
01:09 21.6 °F /  -5.8 °C 15.5 °F /  -9.2 °C 30.75in /  1041.2hPa NE 4.0mph /  6.4km/h 9.0mph /  14.5km/h 77% 0.00in /  0mm
01:14 21.5 °F /  -5.8 °C 15.4 °F /  -9.2 °C 30.74in /  1040.9hPa NE 5.0mph /  8km/h 9.0mph /  14.5km/h 77% 0.00in /  0mm
01:19 21.5 °F /  -5.8 °C 15.7 °F /  -9.1 °C 30.74in /  1040.9hPa NE 5.0mph /  8km/h 9.0mph /  14.5km/h 78% 0.00in /  0mm
01:24 21.4 °F /  -5.9 °C 15.6 °F /  -9.1 °C 30.74in /  1040.9hPa NE 5.0mph /  8km/h 9.0mph /  14.5km/h 78% 0.00in /  0mm
01:29 21.4 °F /  -5.9 °C 15.6 °F /  -9.1 °C 30.74in /  1040.9hPa NE 5.0mph /  8km/h 8.0mph /  12.9km/h 78% 0.00in /  0mm
01:34 21.4 °F /  -5.9 °C 15.6 °F /  -9.1 °C 30.74in /  1040.9hPa NE 2.0mph /  3.2km/h 7.0mph /  11.3km/h 78% 0.00in /  0mm
01:39 21.4 °F /  -5.9 °C 15.6 °F /  -9.1 °C 30.74in /  1040.9hPa NE 3.0mph /  4.8km/h 9.0mph /  14.5km/h 78% 0.00in /  0mm
01:44 21.4 °F /  -5.9 °C 15.6 °F /  -9.1 °C 30.74in /  1040.9hPa NNE 5.0mph /  8km/h 9.0mph /  14.5km/h 78% 0.00in /  0mm
01:49 21.4 °F /  -5.9 °C 15.9 °F /  -8.9 °C 30.74in /  1040.9hPa ENE 7.0mph /  11.3km/h 7.0mph /  11.3km/h 79% 0.00in /  0mm
01:54 21.4 °F /  -5.9 °C 15.6 °F /  -9.1 °C 30.74in /  1040.9hPa NE 4.0mph /  6.4km/h 8.0mph /  12.9km/h 78% 0.00in /  0mm
01:59 21.4 °F /  -5.9 °C 15.9 °F /  -8.9 °C 30.74in /  1040.9hPa NE 3.0mph /  4.8km/h 8.0mph /  12.9km/h 79% 0.00in /  0mm
02:04 21.3 °F /  -5.9 °C 15.5 °F /  -9.2 °C 30.74in /  1040.9hPa NE 3.0mph /  4.8km/h 8.0mph /  12.9km/h 78% 0.00in /  0mm
02:09 21.2 °F /  -6 °C 15.4 °F /  -9.2 °C 30.74in /  1040.9hPa NE 4.0mph /  6.4km/h 8.0mph /  12.9km/h 78% 0.00in /  0mm
02:14 21.1 °F /  -6.1 °C 15.6 °F /  -9.1 °C 30.73in /  1040.5hPa ENE 3.0mph /  4.8km/h 8.0mph /  12.9km/h 79% 0.00in /  0mm
02:19 21.0 °F /  -6.1 °C 15.8 °F /  -9 °C 30.73in /  1040.5hPa ENE 5.0mph /  8km/h 7.0mph /  11.3km/h 80% 0.00in /  0mm
02:24 20.9 °F /  -6.2 °C 15.7 °F /  -9.1 °C 30.73in /  1040.5hPa East 5.0mph /  8km/h 7.0mph /  11.3km/h 80% 0.00in /  0mm
02:29 20.7 °F /  -6.3 °C 15.2 °F /  -9.3 °C 30.73in /  1040.5hPa NE 4.0mph /  6.4km/h 10.0mph /  16.1km/h 79% 0.00in /  0mm
02:34 20.6 °F /  -6.3 °C 14.8 °F /  -9.6 °C 30.72in /  1040.2hPa ENE 2.0mph /  3.2km/h 9.0mph /  14.5km/h 78% 0.00in /  0mm
02:39 20.6 °F /  -6.3 °C 14.8 °F /  -9.6 °C 30.72in /  1040.2hPa NE 4.0mph /  6.4km/h 9.0mph /  14.5km/h 78% 0.00in /  0mm
02:44 20.6 °F /  -6.3 °C 14.8 °F /  -9.6 °C 30.72in /  1040.2hPa ENE 3.0mph /  4.8km/h 8.0mph /  12.9km/h 78% 0.00in /  0mm
02:49 20.5 °F /  -6.4 °C 15.0 °F /  -9.4 °C 30.72in /  1040.2hPa ENE 5.0mph /  8km/h 9.0mph /  14.5km/h 79% 0.00in /  0mm
02:54 20.5 °F /  -6.4 °C 15.0 °F /  -9.4 °C 30.72in /  1040.2hPa NE 4.0mph /  6.4km/h 8.0mph /  12.9km/h 79% 0.00in /  0mm
02:59 20.4 °F /  -6.4 °C 14.9 °F /  -9.5 °C 30.72in /  1040.2hPa NE 3.0mph /  4.8km/h 8.0mph /  12.9km/h 79% 0.00in /  0mm
03:04 20.3 °F /  -6.5 °C 14.8 °F /  -9.6 °C 30.72in /  1040.2hPa NE 3.0mph /  4.8km/h 8.0mph /  12.9km/h 79% 0.00in /  0mm
03:09 20.3 °F /  -6.5 °C 15.1 °F /  -9.4 °C 30.72in /  1040.2hPa NE 2.0mph /  3.2km/h 8.0mph /  12.9km/h 80% 0.00in /  0mm
03:14 20.3 °F /  -6.5 °C 15.1 °F /  -9.4 °C 30.71in /  1039.8hPa NE 3.0mph /  4.8km/h 5.0mph /  8km/h 80% 0.00in /  0mm
03:19 20.2 °F /  -6.6 °C 15.0 °F /  -9.4 °C 30.71in /  1039.8hPa NE 4.0mph /  6.4km/h 5.0mph /  8km/h 80% 0.00in /  0mm
03:24 20.2 °F /  -6.6 °C 15.0 °F /  -9.4 °C 30.71in /  1039.8hPa NE 2.0mph /  3.2km/h 5.0mph /  8km/h 80% 0.00in /  0mm
03:29 20.2 °F /  -6.6 °C 15.0 °F /  -9.4 °C 30.71in /  1039.8hPa NE 2.0mph /  3.2km/h 6.0mph /  9.7km/h 80% 0.00in /  0mm
03:34 20.2 °F /  -6.6 °C 15.0 °F /  -9.4 °C 30.70in /  1039.5hPa NE 3.0mph /  4.8km/h 6.0mph /  9.7km/h 80% 0.00in /  0mm
03:39 20.1 °F /  -6.6 °C 14.9 °F /  -9.5 °C 30.70in /  1039.5hPa NE 3.0mph /  4.8km/h 6.0mph /  9.7km/h 80% 0.00in /  0mm
03:44 20.0 °F /  -6.7 °C 14.8 °F /  -9.6 °C 30.70in /  1039.5hPa NE 3.0mph /  4.8km/h 5.0mph /  8km/h 80% 0.00in /  0mm
03:49 20.0 °F /  -6.7 °C 14.8 °F /  -9.6 °C 30.70in /  1039.5hPa NE 3.0mph /  4.8km/h 5.0mph /  8km/h 80% 0.00in /  0mm
03:54 19.9 °F /  -6.7 °C 15.0 °F /  -9.4 °C 30.70in /  1039.5hPa NE 2.0mph /  3.2km/h 5.0mph /  8km/h 81% 0.00in /  0mm
03:59 19.9 °F /  -6.7 °C 15.0 °F /  -9.4 °C 30.69in /  1039.2hPa NE 1.0mph /  1.6km/h 4.0mph /  6.4km/h 81% 0.00in /  0mm
04:04 19.8 °F /  -6.8 °C 14.9 °F /  -9.5 °C 30.69in /  1039.2hPa NE 2.0mph /  3.2km/h 4.0mph /  6.4km/h 81% 0.00in /  0mm
04:09 19.7 °F /  -6.8 °C 15.1 °F /  -9.4 °C 30.69in /  1039.2hPa NE 2.0mph /  3.2km/h 4.0mph /  6.4km/h 82% 0.00in /  0mm
04:14 19.8 °F /  -6.8 °C 15.2 °F /  -9.3 °C 30.69in /  1039.2hPa ENE 3.0mph /  4.8km/h 4.0mph /  6.4km/h 82% 0.00in /  0mm
04:19 19.8 °F /  -6.8 °C 15.2 °F /  -9.3 °C 30.69in /  1039.2hPa NE 3.0mph /  4.8km/h 5.0mph /  8km/h 82% 0.00in /  0mm
04:24 19.8 °F /  -6.8 °C 15.2 °F /  -9.3 °C 30.69in /  1039.2hPa NE 2.0mph /  3.2km/h 5.0mph /  8km/h 82% 0.00in /  0mm
04:29 19.8 °F /  -6.8 °C 15.2 °F /  -9.3 °C 30.69in /  1039.2hPa NE 2.0mph /  3.2km/h 3.0mph /  4.8km/h 82% 0.00in /  0mm
04:34 19.8 °F /  -6.8 °C 15.2 °F /  -9.3 °C 30.68in /  1038.8hPa NE 1.0mph /  1.6km/h 3.0mph /  4.8km/h 82% 0.00in /  0mm
04:39 19.8 °F /  -6.8 °C 15.2 °F /  -9.3 °C 30.68in /  1038.8hPa NE 2.0mph /  3.2km/h 4.0mph /  6.4km/h 82% 0.00in /  0mm
04:44 19.8 °F /  -6.8 °C 15.2 °F /  -9.3 °C 30.68in /  1038.8hPa NE 2.0mph /  3.2km/h 4.0mph /  6.4km/h 82% 0.00in /  0mm
04:49 19.8 °F /  -6.8 °C 15.2 °F /  -9.3 °C 30.68in /  1038.8hPa NE 2.0mph /  3.2km/h 4.0mph /  6.4km/h 82% 0.00in /  0mm
04:54 19.7 °F /  -6.8 °C 15.1 °F /  -9.4 °C 30.68in /  1038.8hPa NE 2.0mph /  3.2km/h 4.0mph /  6.4km/h 82% 0.00in /  0mm
04:59 19.8 °F /  -6.8 °C 15.2 °F /  -9.3 °C 30.67in /  1038.5hPa Calm   4.0mph /  6.4km/h 82% 0.00in /  0mm
05:04 19.8 °F /  -6.8 °C 15.2 °F /  -9.3 °C 30.67in /  1038.5hPa NE 1.0mph /  1.6km/h 4.0mph /  6.4km/h 82% 0.00in /  0mm
05:09 19.8 °F /  -6.8 °C 15.2 °F /  -9.3 °C 30.67in /  1038.5hPa ENE 2.0mph /  3.2km/h 4.0mph /  6.4km/h 82% 0.00in /  0mm
05:14 19.8 °F /  -6.8 °C 15.2 °F /  -9.3 °C 30.67in /  1038.5hPa NE 2.0mph /  3.2km/h 4.0mph /  6.4km/h 82% 0.00in /  0mm
05:19 19.8 °F /  -6.8 °C 15.2 °F /  -9.3 °C 30.67in /  1038.5hPa NE 2.0mph /  3.2km/h 3.0mph /  4.8km/h 82% 0.00in /  0mm
05:24 19.8 °F /  -6.8 °C 15.2 °F /  -9.3 °C 30.67in /  1038.5hPa NE 2.0mph /  3.2km/h 4.0mph /  6.4km/h 82% 0.00in /  0mm
05:29 19.7 °F /  -6.8 °C 15.1 °F /  -9.4 °C 30.67in /  1038.5hPa NE 2.0mph /  3.2km/h 3.0mph /  4.8km/h 82% 0.00in /  0mm
05:34 19.6 °F /  -6.9 °C 15.0 °F /  -9.4 °C 30.67in /  1038.5hPa Calm   3.0mph /  4.8km/h 82% 0.00in /  0mm
05:39 19.5 °F /  -6.9 °C 14.9 °F /  -9.5 °C 30.67in /  1038.5hPa NE 1.0mph /  1.6km/h 3.0mph /  4.8km/h 82% 0.00in /  0mm
05:44 19.6 °F /  -6.9 °C 15.0 °F /  -9.4 °C 30.67in /  1038.5hPa Calm   4.0mph /  6.4km/h 82% 0.00in /  0mm
05:49 19.6 °F /  -6.9 °C 15.0 °F /  -9.4 °C 30.66in /  1038.1hPa NE 1.0mph /  1.6km/h 4.0mph /  6.4km/h 82% 0.00in /  0mm
05:54 19.6 °F /  -6.9 °C 15.0 °F /  -9.4 °C 30.66in /  1038.1hPa NE 1.0mph /  1.6km/h 4.0mph /  6.4km/h 82% 0.00in /  0mm
05:59 19.7 °F /  -6.8 °C 15.1 °F /  -9.4 °C 30.66in /  1038.1hPa NE 2.0mph /  3.2km/h 5.0mph /  8km/h 82% 0.00in /  0mm
06:04 19.6 °F /  -6.9 °C 15.0 °F /  -9.4 °C 30.66in /  1038.1hPa NE 2.0mph /  3.2km/h 3.0mph /  4.8km/h 82% 0.00in /  0mm
06:09 19.5 °F /  -6.9 °C 14.9 °F /  -9.5 °C 30.66in /  1038.1hPa NE 1.0mph /  1.6km/h 3.0mph /  4.8km/h 82% 0.00in /  0mm
06:14 19.5 °F /  -6.9 °C 14.9 °F /  -9.5 °C 30.66in /  1038.1hPa Calm     82% 0.00in /  0mm
06:19 19.6 °F /  -6.9 °C 15.3 °F /  -9.3 °C 30.66in /  1038.1hPa Calm   3.0mph /  4.8km/h 83% 0.00in /  0mm
06:24 19.7 °F /  -6.8 °C 15.1 °F /  -9.4 °C 30.66in /  1038.1hPa Calm   3.0mph /  4.8km/h 82% 0.00in /  0mm
06:29 19.9 °F /  -6.7 °C 15.3 °F /  -9.3 °C 30.65in /  1037.8hPa Calm   1.0mph /  1.6km/h 82% 0.00in /  0mm
06:34 20.2 °F /  -6.6 °C 15.3 °F /  -9.3 °C 30.64in /  1037.5hPa ENE 4.0mph /  6.4km/h 5.0mph /  8km/h 81% 0.00in /  0mm
06:39 20.4 °F /  -6.4 °C 15.5 °F /  -9.2 °C 30.64in /  1037.5hPa East 2.0mph /  3.2km/h 6.0mph /  9.7km/h 81% 0.00in /  0mm
06:44 20.5 °F /  -6.4 °C 15.3 °F /  -9.3 °C 30.64in /  1037.5hPa ENE 2.0mph /  3.2km/h 7.0mph /  11.3km/h 80% 0.00in /  0mm
06:49 20.6 °F /  -6.3 °C 15.4 °F /  -9.2 °C 30.64in /  1037.5hPa East 1.0mph /  1.6km/h 7.0mph /  11.3km/h 80% 0.00in /  0mm
06:54 20.6 °F /  -6.3 °C 15.1 °F /  -9.4 °C 30.64in /  1037.5hPa East 2.0mph /  3.2km/h 6.0mph /  9.7km/h 79% 0.00in /  0mm
06:59 20.8 °F /  -6.2 °C 15.3 °F /  -9.3 °C 30.63in /  1037.1hPa ENE 2.0mph /  3.2km/h 6.0mph /  9.7km/h 79% 0.00in /  0mm
07:04 20.8 °F /  -6.2 °C 15.3 °F /  -9.3 °C 30.64in /  1037.5hPa NE 2.0mph /  3.2km/h 6.0mph /  9.7km/h 79% 0.00in /  0mm
07:09 20.9 °F /  -6.2 °C 15.4 °F /  -9.2 °C 30.63in /  1037.1hPa NE 4.0mph /  6.4km/h 8.0mph /  12.9km/h 79% 0.00in /  0mm
07:14 21.0 °F /  -6.1 °C 15.5 °F /  -9.2 °C 30.63in /  1037.1hPa NE 1.0mph /  1.6km/h 5.0mph /  8km/h 79% 0.00in /  0mm
07:19 21.1 °F /  -6.1 °C 15.6 °F /  -9.1 °C 30.63in /  1037.1hPa ENE 2.0mph /  3.2km/h 6.0mph /  9.7km/h 79% 0.00in /  0mm
07:24 21.2 °F /  -6 °C 15.7 °F /  -9.1 °C 30.62in /  1036.8hPa East 3.0mph /  4.8km/h 4.0mph /  6.4km/h 79% 0.00in /  0mm
07:29 21.2 °F /  -6 °C 15.7 °F /  -9.1 °C 30.62in /  1036.8hPa ESE 2.0mph /  3.2km/h 7.0mph /  11.3km/h 79% 0.00in /  0mm
07:34 21.4 °F /  -5.9 °C 15.9 °F /  -8.9 °C 30.62in /  1036.8hPa NE 1.0mph /  1.6km/h 3.0mph /  4.8km/h 79% 0.00in /  0mm
07:39 21.5 °F /  -5.8 °C 16.0 °F /  -8.9 °C 30.62in /  1036.8hPa NE 3.0mph /  4.8km/h 5.0mph /  8km/h 79% 0.00in /  0mm
07:44 21.5 °F /  -5.8 °C 15.7 °F /  -9.1 °C 30.62in /  1036.8hPa ENE 1.0mph /  1.6km/h 4.0mph /  6.4km/h 78% 0.00in /  0mm
07:49 21.6 °F /  -5.8 °C 16.1 °F /  -8.8 °C 30.62in /  1036.8hPa ENE 2.0mph /  3.2km/h 4.0mph /  6.4km/h 79% 0.00in /  0mm
07:54 21.7 °F /  -5.7 °C 15.9 °F /  -8.9 °C 30.62in /  1036.8hPa ENE 2.0mph /  3.2km/h 5.0mph /  8km/h 78% 0.00in /  0mm
07:59 21.7 °F /  -5.7 °C 15.9 °F /  -8.9 °C 30.62in /  1036.8hPa ENE 2.0mph /  3.2km/h 5.0mph /  8km/h 78% 0.00in /  0mm
08:04 21.8 °F /  -5.7 °C 16.0 °F /  -8.9 °C 30.61in /  1036.5hPa ENE 2.0mph /  3.2km/h 5.0mph /  8km/h 78% 0.00in /  0mm
08:09 21.9 °F /  -5.6 °C 16.1 °F /  -8.8 °C 30.61in /  1036.5hPa NE 2.0mph /  3.2km/h 5.0mph /  8km/h 78% 0.00in /  0mm
08:14 21.9 °F /  -5.6 °C 16.1 °F /  -8.8 °C 30.61in /  1036.5hPa NE 1.0mph /  1.6km/h 4.0mph /  6.4km/h 78% 0.00in /  0mm
08:19 22.1 °F /  -5.5 °C 16.3 °F /  -8.7 °C 30.61in /  1036.5hPa Calm   3.0mph /  4.8km/h 78% 0.00in /  0mm
08:24 22.2 °F /  -5.4 °C 16.4 °F /  -8.7 °C 30.62in /  1036.8hPa ENE 1.0mph /  1.6km/h 4.0mph /  6.4km/h 78% 0.00in /  0mm
08:29 22.2 °F /  -5.4 °C 16.4 °F /  -8.7 °C 30.61in /  1036.5hPa ENE 1.0mph /  1.6km/h 5.0mph /  8km/h 78% 0.00in /  0mm
08:34 22.4 °F /  -5.3 °C 16.6 °F /  -8.6 °C 30.61in /  1036.5hPa ENE 2.0mph /  3.2km/h 6.0mph /  9.7km/h 78% 0.00in /  0mm
08:39 22.5 °F /  -5.3 °C 16.7 °F /  -8.5 °C 30.60in /  1036.1hPa ENE 2.0mph /  3.2km/h 5.0mph /  8km/h 78% 0.00in /  0mm
08:44 22.7 °F /  -5.2 °C 16.6 °F /  -8.6 °C 30.60in /  1036.1hPa East 1.0mph /  1.6km/h 5.0mph /  8km/h 77% 0.00in /  0mm
08:49 22.7 °F /  -5.2 °C 16.6 °F /  -8.6 °C 30.60in /  1036.1hPa ENE 1.0mph /  1.6km/h 5.0mph /  8km/h 77% 0.00in /  0mm
08:54 22.9 °F /  -5.1 °C 16.8 °F /  -8.4 °C 30.60in /  1036.1hPa ENE 2.0mph /  3.2km/h 5.0mph /  8km/h 77% 0.00in /  0mm
08:59 22.9 °F /  -5.1 °C 16.8 °F /  -8.4 °C 30.60in /  1036.1hPa ENE 2.0mph /  3.2km/h 5.0mph /  8km/h 77% 0.00in /  0mm
09:04 23.1 °F /  -4.9 °C 17.0 °F /  -8.3 °C 30.60in /  1036.1hPa ENE 2.0mph /  3.2km/h 5.0mph /  8km/h 77% 0.00in /  0mm
09:09 23.2 °F /  -4.9 °C 17.1 °F /  -8.3 °C 30.60in /  1036.1hPa ENE 2.0mph /  3.2km/h 4.0mph /  6.4km/h 77% 0.00in /  0mm
09:14 23.4 °F /  -4.8 °C 17.3 °F /  -8.2 °C 30.59in /  1035.8hPa ENE 1.0mph /  1.6km/h 4.0mph /  6.4km/h 77% 0.00in /  0mm
09:19 23.5 °F /  -4.7 °C 17.0 °F /  -8.3 °C 30.59in /  1035.8hPa NE 3.0mph /  4.8km/h 4.0mph /  6.4km/h 76% 0.00in /  0mm
09:24 23.7 °F /  -4.6 °C 17.2 °F /  -8.2 °C 30.59in /  1035.8hPa NE 1.0mph /  1.6km/h 5.0mph /  8km/h 76% 0.00in /  0mm
09:29 23.7 °F /  -4.6 °C 17.2 °F /  -8.2 °C 30.59in /  1035.8hPa NE 2.0mph /  3.2km/h 5.0mph /  8km/h 76% 0.00in /  0mm
09:34 23.8 °F /  -4.6 °C 17.3 °F /  -8.2 °C 30.58in /  1035.4hPa ENE 1.0mph /  1.6km/h 6.0mph /  9.7km/h 76% 0.00in /  0mm
09:39 24.0 °F /  -4.4 °C 17.2 °F /  -8.2 °C 30.58in /  1035.4hPa NE 2.0mph /  3.2km/h 7.0mph /  11.3km/h 75% 0.00in /  0mm
09:44 24.0 °F /  -4.4 °C 17.2 °F /  -8.2 °C 30.58in /  1035.4hPa NNE 6.0mph /  9.7km/h 6.0mph /  9.7km/h 75% 0.00in /  0mm
09:49 24.3 °F /  -4.3 °C 17.5 °F /  -8.1 °C 30.58in /  1035.4hPa NE 2.0mph /  3.2km/h 6.0mph /  9.7km/h 75% 0.00in /  0mm
09:54 24.4 °F /  -4.2 °C 17.6 °F /  -8 °C 30.58in /  1035.4hPa ENE 1.0mph /  1.6km/h 4.0mph /  6.4km/h 75% 0.00in /  0mm
09:59 24.6 °F /  -4.1 °C 17.5 °F /  -8.1 °C 30.58in /  1035.4hPa NE 2.0mph /  3.2km/h 5.0mph /  8km/h 74% 0.00in /  0mm
10:04 24.6 °F /  -4.1 °C 17.5 °F /  -8.1 °C 30.58in /  1035.4hPa NE 3.0mph /  4.8km/h 6.0mph /  9.7km/h 74% 0.00in /  0mm
10:09 24.8 °F /  -4 °C 17.4 °F /  -8.1 °C 30.58in /  1035.4hPa NE 3.0mph /  4.8km/h 6.0mph /  9.7km/h 73% 0.00in /  0mm
10:14 25.0 °F /  -3.9 °C 17.6 °F /  -8 °C 30.57in /  1035.1hPa NE 2.0mph /  3.2km/h 5.0mph /  8km/h 73% 0.00in /  0mm
10:19 25.1 °F /  -3.8 °C 17.7 °F /  -7.9 °C 30.57in /  1035.1hPa NE 2.0mph /  3.2km/h 5.0mph /  8km/h 73% 0.00in /  0mm
10:24 25.3 °F /  -3.7 °C 17.9 °F /  -7.8 °C 30.57in /  1035.1hPa ENE 1.0mph /  1.6km/h 4.0mph /  6.4km/h 73% 0.00in /  0mm
10:29 25.4 °F /  -3.7 °C 17.9 °F /  -7.8 °C 30.57in /  1035.1hPa NE 1.0mph /  1.6km/h 6.0mph /  9.7km/h 73% 0.00in /  0mm
10:34 25.4 °F /  -3.7 °C 17.6 °F /  -8 °C 30.56in /  1034.8hPa Calm   5.0mph /  8km/h 72% 0.00in /  0mm
10:39 25.6 °F /  -3.6 °C 17.5 °F /  -8.1 °C 30.56in /  1034.8hPa Calm   3.0mph /  4.8km/h 71% 0.00in /  0mm
10:44 25.6 °F /  -3.6 °C 17.8 °F /  -7.9 °C 30.56in /  1034.8hPa Calm   3.0mph /  4.8km/h 72% 0.00in /  0mm
10:49 25.7 °F /  -3.5 °C 17.9 °F /  -7.8 °C 30.56in /  1034.8hPa NNE 1.0mph /  1.6km/h 3.0mph /  4.8km/h 72% 0.00in /  0mm
10:54 25.7 °F /  -3.5 °C 17.9 °F /  -7.8 °C 30.56in /  1034.8hPa NE 2.0mph /  3.2km/h 4.0mph /  6.4km/h 72% 0.00in /  0mm
10:59 25.7 °F /  -3.5 °C 17.6 °F /  -8 °C 30.55in /  1034.4hPa NE 2.0mph /  3.2km/h 4.0mph /  6.4km/h 71% 0.00in /  0mm
11:04 25.8 °F /  -3.4 °C 17.7 °F /  -7.9 °C 30.55in /  1034.4hPa NE 2.0mph /  3.2km/h 4.0mph /  6.4km/h 71% 0.00in /  0mm
11:09 25.8 °F /  -3.4 °C 17.7 °F /  -7.9 °C 30.54in /  1034.1hPa NE 2.0mph /  3.2km/h 4.0mph /  6.4km/h 71% 0.00in /  0mm
11:14 26.0 °F /  -3.3 °C 18.2 °F /  -7.7 °C 30.54in /  1034.1hPa NE 2.0mph /  3.2km/h 5.0mph /  8km/h 72% 0.00in /  0mm
11:19 25.9 °F /  -3.4 °C 17.5 °F /  -8.1 °C 30.53in /  1033.7hPa NE 2.0mph /  3.2km/h 5.0mph /  8km/h 70% 0.00in /  0mm
11:24 26.3 °F /  -3.2 °C 17.8 °F /  -7.9 °C 30.53in /  1033.7hPa NE 1.0mph /  1.6km/h 3.0mph /  4.8km/h 70% 0.00in /  0mm
11:29 26.4 °F /  -3.1 °C 17.9 °F /  -7.8 °C 30.52in /  1033.4hPa ENE 3.0mph /  4.8km/h 3.0mph /  4.8km/h 70% 0.00in /  0mm
11:34 26.6 °F /  -3 °C 18.1 °F /  -7.7 °C 30.52in /  1033.4hPa East 1.0mph /  1.6km/h 3.0mph /  4.8km/h 70% 0.00in /  0mm
11:39 26.9 °F /  -2.8 °C 18.4 °F /  -7.6 °C 30.51in /  1033.1hPa ENE 1.0mph /  1.6km/h 3.0mph /  4.8km/h 70% 0.00in /  0mm
11:44 27.2 °F /  -2.7 °C 18.7 °F /  -7.4 °C 30.51in /  1033.1hPa NE 1.0mph /  1.6km/h 3.0mph /  4.8km/h 70% 0.00in /  0mm
11:49 27.3 °F /  -2.6 °C 18.5 °F /  -7.5 °C 30.50in /  1032.7hPa NE 2.0mph /  3.2km/h 4.0mph /  6.4km/h 69% 0.00in /  0mm
11:54 27.1 °F /  -2.7 °C 18.6 °F /  -7.4 °C 30.50in /  1032.7hPa ESE 1.0mph /  1.6km/h 5.0mph /  8km/h 70% 0.00in /  0mm
11:59 26.7 °F /  -2.9 °C 17.9 °F /  -7.8 °C 30.50in /  1032.7hPa Calm   3.0mph /  4.8km/h 69% 0.00in /  0mm
12:04 26.7 °F /  -2.9 °C 17.9 °F /  -7.8 °C 30.49in /  1032.4hPa NE 1.0mph /  1.6km/h 3.0mph /  4.8km/h 69% 0.00in /  0mm
12:09 26.9 °F /  -2.8 °C 18.4 °F /  -7.6 °C 30.50in /  1032.7hPa NE 1.0mph /  1.6km/h 3.0mph /  4.8km/h 70% 0.00in /  0mm
12:14 26.9 °F /  -2.8 °C 18.7 °F /  -7.4 °C 30.49in /  1032.4hPa East 1.0mph /  1.6km/h 3.0mph /  4.8km/h 71% 0.00in /  0mm
12:19 26.9 °F /  -2.8 °C 18.1 °F /  -7.7 °C 30.49in /  1032.4hPa SE 1.0mph /  1.6km/h 3.0mph /  4.8km/h 69% 0.00in /  0mm
12:24 26.8 °F /  -2.9 °C 18.0 °F /  -7.8 °C 30.49in /  1032.4hPa ENE 1.0mph /  1.6km/h 3.0mph /  4.8km/h 69% 0.00in /  0mm
12:29 27.1 °F /  -2.7 °C 18.3 °F /  -7.6 °C 30.48in /  1032.1hPa NE 2.0mph /  3.2km/h 2.0mph /  3.2km/h 69% 0.00in /  0mm
12:34 26.8 °F /  -2.9 °C 18.0 °F /  -7.8 °C 30.48in /  1032.1hPa Calm   2.0mph /  3.2km/h 69% 0.00in /  0mm
12:39 26.9 °F /  -2.8 °C 18.1 °F /  -7.7 °C 30.47in /  1031.7hPa Calm     69% 0.00in /  0mm
12:44 27.1 °F /  -2.7 °C 18.6 °F /  -7.4 °C 30.47in /  1031.7hPa Calm   2.0mph /  3.2km/h 70% 0.00in /  0mm
12:49 26.9 °F /  -2.8 °C 17.7 °F /  -7.9 °C 30.46in /  1031.4hPa Calm   2.0mph /  3.2km/h 68% 0.00in /  0mm
12:54 27.0 °F /  -2.8 °C 18.5 °F /  -7.5 °C 30.46in /  1031.4hPa Calm   2.0mph /  3.2km/h 70% 0.00in /  0mm
12:59 27.2 °F /  -2.7 °C 18.7 °F /  -7.4 °C 30.45in /  1031hPa Calm     70% 0.00in /  0mm
13:04 27.2 °F /  -2.7 °C 18.4 °F /  -7.6 °C 30.45in /  1031hPa Calm   2.0mph /  3.2km/h 69% 0.00in /  0mm
13:09 27.2 °F /  -2.7 °C 18.4 °F /  -7.6 °C 30.45in /  1031hPa Calm   2.0mph /  3.2km/h 69% 0.00in /  0mm
13:14 27.2 °F /  -2.7 °C 18.0 °F /  -7.8 °C 30.45in /  1031hPa Calm   2.0mph /  3.2km/h 68% 0.00in /  0mm
13:19 27.6 °F /  -2.4 °C 19.1 °F /  -7.2 °C 30.45in /  1031hPa Calm     70% 0.00in /  0mm
13:24 27.6 °F /  -2.4 °C 18.8 °F /  -7.3 °C 30.45in /  1031hPa Calm     69% 0.00in /  0mm
13:29 27.7 °F /  -2.4 °C 18.5 °F /  -7.5 °C 30.45in /  1031hPa Calm     68% 0.00in /  0mm
13:34 27.7 °F /  -2.4 °C 18.5 °F /  -7.5 °C 30.45in /  1031hPa Calm     68% 0.00in /  0mm
13:39 28.0 °F /  -2.2 °C 18.8 °F /  -7.3 °C 30.45in /  1031hPa Calm   3.0mph /  4.8km/h 68% 0.00in /  0mm
13:44 28.2 °F /  -2.1 °C 19.0 °F /  -7.2 °C 30.45in /  1031hPa Calm   3.0mph /  4.8km/h 68% 0.00in /  0mm
13:49 28.1 °F /  -2.2 °C 18.5 °F /  -7.5 °C 30.44in /  1030.7hPa Calm   2.0mph /  3.2km/h 67% 0.00in /  0mm
13:54 27.9 °F /  -2.3 °C 18.7 °F /  -7.4 °C 30.44in /  1030.7hPa WSW 1.0mph /  1.6km/h 1.0mph /  1.6km/h 68% 0.00in /  0mm
13:59 27.9 °F /  -2.3 °C 18.4 °F /  -7.6 °C 30.44in /  1030.7hPa WSW 1.0mph /  1.6km/h 2.0mph /  3.2km/h 67% 0.00in /  0mm
14:04 28.0 °F /  -2.2 °C 18.5 °F /  -7.5 °C 30.43in /  1030.4hPa WSW 1.0mph /  1.6km/h 2.0mph /  3.2km/h 67% 0.00in /  0mm
14:09 28.1 °F /  -2.2 °C 18.9 °F /  -7.3 °C 30.43in /  1030.4hPa SSE 2.0mph /  3.2km/h 3.0mph /  4.8km/h 68% 0.00in /  0mm
14:14 28.2 °F /  -2.1 °C 18.6 °F /  -7.4 °C 30.42in /  1030hPa South 2.0mph /  3.2km/h 4.0mph /  6.4km/h 67% 0.00in /  0mm
14:19 28.3 °F /  -2.1 °C 18.4 °F /  -7.6 °C 30.42in /  1030hPa South 1.0mph /  1.6km/h 4.0mph /  6.4km/h 66% 0.00in /  0mm
14:24 28.4 °F /  -2 °C 18.8 °F /  -7.3 °C 30.42in /  1030hPa Calm   1.0mph /  1.6km/h 67% 0.00in /  0mm
14:29 28.5 °F /  -1.9 °C 19.3 °F /  -7.1 °C 30.42in /  1030hPa Calm   1.0mph /  1.6km/h 68% 0.00in /  0mm
14:34 28.7 °F /  -1.8 °C 19.1 °F /  -7.2 °C 30.42in /  1030hPa Calm   2.0mph /  3.2km/h 67% 0.00in /  0mm
14:39 28.6 °F /  -1.9 °C 18.3 °F /  -7.6 °C 30.41in /  1029.7hPa SW 1.0mph /  1.6km/h 3.0mph /  4.8km/h 65% 0.00in /  0mm
14:44 28.7 °F /  -1.8 °C 18.8 °F /  -7.3 °C 30.41in /  1029.7hPa SW 2.0mph /  3.2km/h 3.0mph /  4.8km/h 66% 0.00in /  0mm
14:49 28.6 °F /  -1.9 °C 18.7 °F /  -7.4 °C 30.41in /  1029.7hPa SW 1.0mph /  1.6km/h 3.0mph /  4.8km/h 66% 0.00in /  0mm
14:54 28.7 °F /  -1.8 °C 18.8 °F /  -7.3 °C 30.42in /  1030hPa WSW 1.0mph /  1.6km/h 3.0mph /  4.8km/h 66% 0.00in /  0mm
14:59 28.7 °F /  -1.8 °C 18.8 °F /  -7.3 °C 30.41in /  1029.7hPa WSW 1.0mph /  1.6km/h 3.0mph /  4.8km/h 66% 0.00in /  0mm
15:04 28.6 °F /  -1.9 °C 19.0 °F /  -7.2 °C 30.41in /  1029.7hPa WSW 1.0mph /  1.6km/h 3.0mph /  4.8km/h 67% 0.00in /  0mm
15:09 28.7 °F /  -1.8 °C 18.8 °F /  -7.3 °C 30.40in /  1029.3hPa Calm   3.0mph /  4.8km/h 66% 0.00in /  0mm
15:14 28.7 °F /  -1.8 °C 19.1 °F /  -7.2 °C 30.40in /  1029.3hPa Calm     67% 0.00in /  0mm
15:19 28.7 °F /  -1.8 °C 18.8 °F /  -7.3 °C 30.40in /  1029.3hPa Calm     66% 0.00in /  0mm
15:24 28.7 °F /  -1.8 °C 18.8 °F /  -7.3 °C 30.39in /  1029hPa Calm     66% 0.00in /  0mm
15:29 28.8 °F /  -1.8 °C 19.2 °F /  -7.1 °C 30.39in /  1029hPa Calm     67% 0.00in /  0mm
15:34 28.8 °F /  -1.8 °C 19.2 °F /  -7.1 °C 30.39in /  1029hPa Calm     67% 0.00in /  0mm
15:39 28.9 °F /  -1.7 °C 19.3 °F /  -7.1 °C 30.39in /  1029hPa Calm     67% 0.00in /  0mm
15:44 28.8 °F /  -1.8 °C 18.9 °F /  -7.3 °C 30.39in /  1029hPa Calm     66% 0.00in /  0mm
15:49 28.8 °F /  -1.8 °C 19.2 °F /  -7.1 °C 30.39in /  1029hPa Calm     67% 0.00in /  0mm
15:54 28.8 °F /  -1.8 °C 19.2 °F /  -7.1 °C 30.39in /  1029hPa Calm     67% 0.00in /  0mm
15:59 29.0 °F /  -1.7 °C 19.4 °F /  -7 °C 30.39in /  1029hPa Calm     67% 0.00in /  0mm
16:04 29.0 °F /  -1.7 °C 19.4 °F /  -7 °C 30.39in /  1029hPa Calm     67% 0.00in /  0mm
16:09 29.0 °F /  -1.7 °C 19.4 °F /  -7 °C 30.39in /  1029hPa Calm     67% 0.00in /  0mm
16:14 29.0 °F /  -1.7 °C 19.4 °F /  -7 °C 30.39in /  1029hPa Calm     67% 0.00in /  0mm
16:19 29.0 °F /  -1.7 °C 19.4 °F /  -7 °C 30.39in /  1029hPa Calm     67% 0.00in /  0mm
16:24 29.0 °F /  -1.7 °C 19.4 °F /  -7 °C 30.39in /  1029hPa Calm     67% 0.00in /  0mm
16:29 29.0 °F /  -1.7 °C 19.4 °F /  -7 °C 30.39in /  1029hPa Calm     67% 0.00in /  0mm
16:34 29.1 °F /  -1.6 °C 19.2 °F /  -7.1 °C 30.39in /  1029hPa WSW 3.0mph /  4.8km/h 4.0mph /  6.4km/h 66% 0.00in /  0mm
16:39 29.2 °F /  -1.6 °C 19.6 °F /  -6.9 °C 30.39in /  1029hPa West 1.0mph /  1.6km/h 3.0mph /  4.8km/h 67% 0.00in /  0mm
16:44 29.3 °F /  -1.5 °C 20.0 °F /  -6.7 °C 30.39in /  1029hPa Calm   3.0mph /  4.8km/h 68% 0.00in /  0mm
16:49 29.2 °F /  -1.6 °C 20.3 °F /  -6.5 °C 30.39in /  1029hPa NNW 2.0mph /  3.2km/h 3.0mph /  4.8km/h 69% 0.00in /  0mm
16:54 29.0 °F /  -1.7 °C 20.1 °F /  -6.6 °C 30.39in /  1029hPa NW 1.0mph /  1.6km/h 3.0mph /  4.8km/h 69% 0.00in /  0mm
16:59 28.8 °F /  -1.8 °C 19.9 °F /  -6.7 °C 30.39in /  1029hPa NNW 1.0mph /  1.6km/h 3.0mph /  4.8km/h 69% 0.00in /  0mm
17:04 28.8 °F /  -1.8 °C 19.9 °F /  -6.7 °C 30.38in /  1028.7hPa NW 1.0mph /  1.6km/h 3.0mph /  4.8km/h 69% 0.00in /  0mm
17:09 28.8 °F /  -1.8 °C 19.9 °F /  -6.7 °C 30.38in /  1028.7hPa WNW 1.0mph /  1.6km/h 5.0mph /  8km/h 69% 0.00in /  0mm
17:14 28.7 °F /  -1.8 °C 19.8 °F /  -6.8 °C 30.38in /  1028.7hPa WNW 2.0mph /  3.2km/h 4.0mph /  6.4km/h 69% 0.00in /  0mm
17:19 28.6 °F /  -1.9 °C 19.7 °F /  -6.8 °C 30.38in /  1028.7hPa WNW 1.0mph /  1.6km/h 3.0mph /  4.8km/h 69% 0.00in /  0mm
17:24 28.6 °F /  -1.9 °C 20.1 °F /  -6.6 °C 30.39in /  1029hPa WNW 2.0mph /  3.2km/h 4.0mph /  6.4km/h 70% 0.00in /  0mm
17:29 28.6 °F /  -1.9 °C 20.1 °F /  -6.6 °C 30.39in /  1029hPa WNW 2.0mph /  3.2km/h 4.0mph /  6.4km/h 70% 0.00in /  0mm
17:34 28.5 °F /  -1.9 °C 20.0 °F /  -6.7 °C 30.38in /  1028.7hPa West 1.0mph /  1.6km/h 4.0mph /  6.4km/h 70% 0.00in /  0mm
17:39 28.5 °F /  -1.9 °C 20.0 °F /  -6.7 °C 30.38in /  1028.7hPa Calm   3.0mph /  4.8km/h 70% 0.00in /  0mm
17:44 28.5 °F /  -1.9 °C 20.0 °F /  -6.7 °C 30.39in /  1029hPa West 1.0mph /  1.6km/h 3.0mph /  4.8km/h 70% 0.00in /  0mm
17:49 28.5 °F /  -1.9 °C 20.3 °F /  -6.5 °C 30.39in /  1029hPa WSW 1.0mph /  1.6km/h 4.0mph /  6.4km/h 71% 0.00in /  0mm
17:54 28.5 °F /  -1.9 °C 20.3 °F /  -6.5 °C 30.39in /  1029hPa WNW 3.0mph /  4.8km/h 3.0mph /  4.8km/h 71% 0.00in /  0mm
17:59 28.4 °F /  -2 °C 20.2 °F /  -6.6 °C 30.39in /  1029hPa WNW 2.0mph /  3.2km/h 4.0mph /  6.4km/h 71% 0.00in /  0mm
18:04 28.3 °F /  -2.1 °C 20.4 °F /  -6.4 °C 30.39in /  1029hPa WNW 2.0mph /  3.2km/h 5.0mph /  8km/h 72% 0.00in /  0mm
18:09 28.3 °F /  -2.1 °C 20.4 °F /  -6.4 °C 30.39in /  1029hPa West 2.0mph /  3.2km/h 5.0mph /  8km/h 72% 0.00in /  0mm
18:14 28.3 °F /  -2.1 °C 20.4 °F /  -6.4 °C 30.39in /  1029hPa West 2.0mph /  3.2km/h 5.0mph /  8km/h 72% 0.00in /  0mm
18:19 28.2 °F /  -2.1 °C 20.7 °F /  -6.3 °C 30.38in /  1028.7hPa West 2.0mph /  3.2km/h 4.0mph /  6.4km/h 73% 0.00in /  0mm
18:24 28.1 °F /  -2.2 °C 20.6 °F /  -6.3 °C 30.39in /  1029hPa WNW 2.0mph /  3.2km/h 4.0mph /  6.4km/h 73% 0.00in /  0mm
18:29 28.0 °F /  -2.2 °C 20.5 °F /  -6.4 °C 30.39in /  1029hPa WNW 2.0mph /  3.2km/h 5.0mph /  8km/h 73% 0.00in /  0mm
18:34 27.9 °F /  -2.3 °C 20.4 °F /  -6.4 °C 30.39in /  1029hPa NW 3.0mph /  4.8km/h 4.0mph /  6.4km/h 73% 0.00in /  0mm
18:39 27.6 °F /  -2.4 °C 19.8 °F /  -6.8 °C 30.39in /  1029hPa WNW 2.0mph /  3.2km/h 6.0mph /  9.7km/h 72% 0.00in /  0mm
18:44 27.4 °F /  -2.6 °C 19.6 °F /  -6.9 °C 30.39in /  1029hPa WNW 3.0mph /  4.8km/h 5.0mph /  8km/h 72% 0.00in /  0mm
18:49 27.0 °F /  -2.8 °C 19.5 °F /  -6.9 °C 30.39in /  1029hPa WNW 3.0mph /  4.8km/h 5.0mph /  8km/h 73% 0.00in /  0mm
18:54 26.9 °F /  -2.8 °C 19.4 °F /  -7 °C 30.39in /  1029hPa Calm   4.0mph /  6.4km/h 73% 0.00in /  0mm
18:59 26.5 °F /  -3.1 °C 19.3 °F /  -7.1 °C 30.39in /  1029hPa NW 2.0mph /  3.2km/h 3.0mph /  4.8km/h 74% 0.00in /  0mm
19:04 26.3 °F /  -3.2 °C 19.1 °F /  -7.2 °C 30.39in /  1029hPa NW 1.0mph /  1.6km/h 3.0mph /  4.8km/h 74% 0.00in /  0mm
19:09 26.1 °F /  -3.3 °C 18.9 °F /  -7.3 °C 30.39in /  1029hPa WNW 1.0mph /  1.6km/h 3.0mph /  4.8km/h 74% 0.00in /  0mm
19:14 25.9 °F /  -3.4 °C 18.7 °F /  -7.4 °C 30.39in /  1029hPa WNW 1.0mph /  1.6km/h 3.0mph /  4.8km/h 74% 0.00in /  0mm
19:19 25.7 °F /  -3.5 °C 18.6 °F /  -7.4 °C 30.39in /  1029hPa Calm   1.0mph /  1.6km/h 74% 0.00in /  0mm
19:24 25.4 °F /  -3.7 °C 18.6 °F /  -7.4 °C 30.39in /  1029hPa Calm   1.0mph /  1.6km/h 75% 0.00in /  0mm
19:29 25.3 °F /  -3.7 °C 18.5 °F /  -7.5 °C 30.39in /  1029hPa Calm     75% 0.00in /  0mm
19:34 24.8 °F /  -4 °C 18.3 °F /  -7.6 °C 30.39in /  1029hPa Calm     76% 0.00in /  0mm
19:39 24.7 °F /  -4.1 °C 18.2 °F /  -7.7 °C 30.39in /  1029hPa Calm   2.0mph /  3.2km/h 76% 0.00in /  0mm
19:44 24.7 °F /  -4.1 °C 18.2 °F /  -7.7 °C 30.39in /  1029hPa WNW 2.0mph /  3.2km/h 3.0mph /  4.8km/h 76% 0.00in /  0mm
19:49 24.6 °F /  -4.1 °C 18.1 °F /  -7.7 °C 30.39in /  1029hPa Calm   4.0mph /  6.4km/h 76% 0.00in /  0mm
19:54 24.5 °F /  -4.2 °C 18.6 °F /  -7.4 °C 30.39in /  1029hPa Calm   2.0mph /  3.2km/h 78% 0.00in /  0mm
19:59 24.4 °F /  -4.2 °C 18.5 °F /  -7.5 °C 30.39in /  1029hPa Calm   3.0mph /  4.8km/h 78% 0.00in /  0mm
20:04 24.3 °F /  -4.3 °C 18.1 °F /  -7.7 °C 30.39in /  1029hPa Calm     77% 0.00in /  0mm
20:09 24.1 °F /  -4.4 °C 17.9 °F /  -7.8 °C 30.38in /  1028.7hPa Calm     77% 0.00in /  0mm
20:14 23.9 °F /  -4.5 °C 17.7 °F /  -7.9 °C 30.38in /  1028.7hPa Calm     77% 0.00in /  0mm
20:19 23.5 °F /  -4.7 °C 17.6 °F /  -8 °C 30.38in /  1028.7hPa Calm     78% 0.00in /  0mm
20:24 23.3 °F /  -4.8 °C 17.5 °F /  -8.1 °C 30.38in /  1028.7hPa Calm     78% 0.00in /  0mm
20:29 23.0 °F /  -5 °C 17.5 °F /  -8.1 °C 30.38in /  1028.7hPa Calm     79% 0.00in /  0mm
20:34 22.8 °F /  -5.1 °C 17.3 °F /  -8.2 °C 30.39in /  1029hPa Calm     79% 0.00in /  0mm
20:39 22.9 °F /  -5.1 °C 17.4 °F /  -8.1 °C 30.39in /  1029hPa Calm     79% 0.00in /  0mm
20:44 22.8 °F /  -5.1 °C 17.3 °F /  -8.2 °C 30.39in /  1029hPa Calm     79% 0.00in /  0mm
20:49 22.6 °F /  -5.2 °C 17.4 °F /  -8.1 °C 30.39in /  1029hPa Calm     80% 0.00in /  0mm
20:54 22.7 °F /  -5.2 °C 17.2 °F /  -8.2 °C 30.39in /  1029hPa Calm     79% 0.00in /  0mm
20:59 22.5 °F /  -5.3 °C 17.0 °F /  -8.3 °C 30.39in /  1029hPa Calm     79% 0.00in /  0mm
21:04 22.2 °F /  -5.4 °C 17.0 °F /  -8.3 °C 30.39in /  1029hPa Calm     80% 0.00in /  0mm
21:09 22.0 °F /  -5.6 °C 16.8 °F /  -8.4 °C 30.39in /  1029hPa Calm     80% 0.00in /  0mm
21:14 21.6 °F /  -5.8 °C 16.7 °F /  -8.5 °C 30.39in /  1029hPa Calm     81% 0.00in /  0mm
21:19 21.8 °F /  -5.7 °C 16.9 °F /  -8.4 °C 30.39in /  1029hPa Calm     81% 0.00in /  0mm
21:24 21.6 °F /  -5.8 °C 16.7 °F /  -8.5 °C 30.39in /  1029hPa Calm     81% 0.00in /  0mm
21:29 21.6 °F /  -5.8 °C 16.7 °F /  -8.5 °C 30.39in /  1029hPa Calm     81% 0.00in /  0mm
21:34 22.0 °F /  -5.6 °C 17.1 °F /  -8.3 °C 30.39in /  1029hPa Calm     81% 0.00in /  0mm
21:39 21.9 °F /  -5.6 °C 17.0 °F /  -8.3 °C 30.39in /  1029hPa Calm     81% 0.00in /  0mm
21:44 21.9 °F /  -5.6 °C 17.0 °F /  -8.3 °C 30.39in /  1029hPa Calm     81% 0.00in /  0mm
21:49 22.0 °F /  -5.6 °C 17.1 °F /  -8.3 °C 30.39in /  1029hPa Calm     81% 0.00in /  0mm
21:54 22.2 °F /  -5.4 °C 17.3 °F /  -8.2 °C 30.39in /  1029hPa Calm   3.0mph /  4.8km/h 81% 0.00in /  0mm
21:59 22.2 °F /  -5.4 °C 17.0 °F /  -8.3 °C 30.39in /  1029hPa Calm   3.0mph /  4.8km/h 80% 0.00in /  0mm
22:04 21.9 °F /  -5.6 °C 17.0 °F /  -8.3 °C 30.39in /  1029hPa Calm   1.0mph /  1.6km/h 81% 0.00in /  0mm
22:09 21.9 °F /  -5.6 °C 17.2 °F /  -8.2 °C 30.39in /  1029hPa West 1.0mph /  1.6km/h 3.0mph /  4.8km/h 82% 0.00in /  0mm
22:14 21.9 °F /  -5.6 °C 17.0 °F /  -8.3 °C 30.39in /  1029hPa Calm   2.0mph /  3.2km/h 81% 0.00in /  0mm
22:19 21.7 °F /  -5.7 °C 16.8 °F /  -8.4 °C 30.39in /  1029hPa Calm   2.0mph /  3.2km/h 81% 0.00in /  0mm
22:24 21.4 °F /  -5.9 °C 16.8 °F /  -8.4 °C 30.39in /  1029hPa Calm     82% 0.00in /  0mm
22:29 21.1 °F /  -6.1 °C 16.5 °F /  -8.6 °C 30.39in /  1029hPa Calm     82% 0.00in /  0mm
22:34 20.8 °F /  -6.2 °C 16.5 °F /  -8.6 °C 30.40in /  1029.3hPa Calm     83% 0.00in /  0mm
22:39 20.9 °F /  -6.2 °C 16.5 °F /  -8.6 °C 30.40in /  1029.3hPa Calm   1.0mph /  1.6km/h 83% 0.00in /  0mm
22:44 21.1 °F /  -6.1 °C 16.7 °F /  -8.5 °C 30.40in /  1029.3hPa Calm     83% 0.00in /  0mm
22:49 21.2 °F /  -6 °C 16.8 °F /  -8.4 °C 30.40in /  1029.3hPa Calm   1.0mph /  1.6km/h 83% 0.00in /  0mm
22:54 22.0 °F /  -5.6 °C 17.9 °F /  -7.8 °C 30.40in /  1029.3hPa Calm   3.0mph /  4.8km/h 84% 0.00in /  0mm
22:59 22.7 °F /  -5.2 °C 18.3 °F /  -7.6 °C 30.40in /  1029.3hPa West 1.0mph /  1.6km/h 4.0mph /  6.4km/h 83% 0.00in /  0mm
23:04 23.3 °F /  -4.8 °C 18.6 °F /  -7.4 °C 30.40in /  1029.3hPa West 1.0mph /  1.6km/h 4.0mph /  6.4km/h 82% 0.00in /  0mm
23:09 23.5 °F /  -4.7 °C 18.5 °F /  -7.5 °C 30.40in /  1029.3hPa West 1.0mph /  1.6km/h 3.0mph /  4.8km/h 81% 0.00in /  0mm
23:14 23.6 °F /  -4.7 °C 18.3 °F /  -7.6 °C 30.40in /  1029.3hPa West 2.0mph /  3.2km/h 3.0mph /  4.8km/h 80% 0.00in /  0mm
23:19 23.7 °F /  -4.6 °C 18.4 °F /  -7.6 °C 30.40in /  1029.3hPa West 1.0mph /  1.6km/h 4.0mph /  6.4km/h 80% 0.00in /  0mm
23:24 23.7 °F /  -4.6 °C 18.4 °F /  -7.6 °C 30.40in /  1029.3hPa WSW 2.0mph /  3.2km/h 3.0mph /  4.8km/h 80% 0.00in /  0mm
23:29 24.0 °F /  -4.4 °C 18.4 °F /  -7.6 °C 30.40in /  1029.3hPa WSW 2.0mph /  3.2km/h 6.0mph /  9.7km/h 79% 0.00in /  0mm
23:34 24.4 °F /  -4.2 °C 18.5 °F /  -7.5 °C 30.40in /  1029.3hPa WSW 5.0mph /  8km/h 7.0mph /  11.3km/h 78% 0.00in /  0mm
23:39 24.6 °F /  -4.1 °C 18.7 °F /  -7.4 °C 30.40in /  1029.3hPa SW 4.0mph /  6.4km/h 5.0mph /  8km/h 78% 0.00in /  0mm
23:44 24.8 °F /  -4 °C 18.6 °F /  -7.4 °C 30.40in /  1029.3hPa West 1.0mph /  1.6km/h 7.0mph /  11.3km/h 77% 0.00in /  0mm
23:49 24.9 °F /  -3.9 °C 18.7 °F /  -7.4 °C 30.40in /  1029.3hPa West 2.0mph /  3.2km/h 5.0mph /  8km/h 77% 0.00in /  0mm
23:54 24.9 °F /  -3.9 °C 18.7 °F /  -7.4 °C 30.40in /  1029.3hPa West 3.0mph /  4.8km/h 6.0mph /  9.7km/h 77% 0.00in /  0mm
23:59 24.9 °F /  -3.9 °C 18.7 °F /  -7.4 °C 30.40in /  1029.3hPa West 3.0mph /  4.8km/h 6.0mph /  9.7km/h 77% 0.00in /  0mm
Buffalo, New York, USA
Compliments of Weather Underground - 2.5 mb